createdAt,value
2018-11-21T00:00:04.724Z,17.57
2018-11-21T00:02:32.988Z,17.67
2018-11-21T00:05:01.705Z,16.30
2018-11-21T00:07:34.742Z,17.73
2018-11-21T00:10:03.615Z,17.83
2018-11-21T00:12:31.986Z,17.83
2018-11-21T00:15:00.300Z,17.77
2018-11-21T00:17:29.011Z,18.00
2018-11-21T00:19:57.322Z,17.10
2018-11-21T00:22:25.611Z,18.97
2018-11-21T00:24:53.887Z,18.67
2018-11-21T00:27:22.171Z,17.93
2018-11-21T00:30:27.232Z,19.10
2018-11-21T00:32:55.573Z,17.57
2018-11-21T00:35:23.859Z,18.80
2018-11-21T00:37:52.108Z,20.13
2018-11-21T00:40:20.406Z,19.60
2018-11-21T00:42:48.646Z,19.53
2018-11-21T00:45:16.934Z,19.23
2018-11-21T00:47:45.212Z,19.63
2018-11-21T00:50:13.768Z,20.37
2018-11-21T00:52:42.983Z,19.20
2018-11-21T00:55:11.287Z,20.03
2018-11-21T00:57:39.561Z,19.90
2018-11-21T01:00:09.459Z,20.47
2018-11-21T01:02:37.738Z,20.00
2018-11-21T01:05:06.818Z,19.93
2018-11-21T01:07:35.114Z,20.40
2018-11-21T01:10:03.408Z,21.13
2018-11-21T01:12:31.730Z,22.00
2018-11-21T01:15:00.051Z,20.13
2018-11-21T01:17:28.722Z,21.87
2018-11-21T01:19:57.062Z,21.07
2018-11-21T01:22:25.686Z,21.93
2018-11-21T01:24:54.094Z,21.90
2018-11-21T01:27:22.371Z,21.33
2018-11-21T01:29:50.606Z,21.50
2018-11-21T01:32:18.858Z,21.97
2018-11-21T01:34:47.103Z,21.57
2018-11-21T01:37:15.395Z,20.43
2018-11-21T01:40:12.389Z,21.03
2018-11-21T01:42:40.678Z,22.30
2018-11-21T01:45:08.946Z,20.43
2018-11-21T01:47:37.214Z,21.47
2018-11-21T01:50:06.598Z,23.60
2018-11-21T01:52:34.869Z,23.13
2018-11-21T01:55:03.279Z,22.80
2018-11-21T01:57:31.612Z,22.60
2018-11-21T01:59:59.947Z,22.93
2018-11-21T02:02:28.230Z,22.20
2018-11-21T02:04:56.879Z,21.47
2018-11-21T02:07:25.145Z,23.50
2018-11-21T02:09:53.765Z,23.27
2018-11-21T02:12:22.373Z,22.70
2018-11-21T02:14:50.595Z,21.33
2018-11-21T02:17:19.167Z,22.53
2018-11-21T02:19:47.435Z,23.17
2018-11-21T02:22:15.711Z,22.90
2018-11-21T02:24:44.354Z,22.37
2018-11-21T02:27:12.650Z,22.20
2018-11-21T02:29:41.586Z,22.73
2018-11-21T02:32:09.875Z,23.07
2018-11-21T02:34:38.113Z,23.43
2018-11-21T02:37:06.387Z,21.57
2018-11-21T02:39:34.670Z,23.10
2018-11-21T02:42:02.938Z,22.80
2018-11-21T02:44:31.250Z,24.73
2018-11-21T02:46:59.537Z,22.20
2018-11-21T02:49:27.847Z,23.10
2018-11-21T02:51:56.115Z,22.00
2018-11-21T02:58:20.779Z,22.10
2018-11-21T03:00:49.054Z,21.90
2018-11-21T03:03:17.371Z,22.00
2018-11-21T03:05:45.675Z,22.07
2018-11-21T03:08:13.939Z,22.47
2018-11-21T03:10:42.199Z,23.10
2018-11-21T03:13:10.541Z,23.70
2018-11-21T03:15:38.736Z,22.93
2018-11-21T03:18:07.345Z,23.27
2018-11-21T03:20:35.636Z,23.20
2018-11-21T03:23:04.295Z,22.77
2018-11-21T03:25:32.779Z,22.53
2018-11-21T03:28:01.047Z,23.43
2018-11-21T03:30:29.360Z,23.20
2018-11-21T03:32:57.613Z,23.33
2018-11-21T03:35:25.903Z,23.63
2018-11-21T03:37:54.479Z,23.37
2018-11-21T03:40:22.776Z,22.03
2018-11-21T03:42:51.049Z,22.30
2018-11-21T03:45:21.544Z,22.30
2018-11-21T03:47:49.837Z,22.47
2018-11-21T03:50:18.459Z,22.67
2018-11-21T03:52:46.732Z,22.57
2018-11-21T03:55:15.014Z,21.60
2018-11-21T03:57:43.303Z,22.80
2018-11-21T04:00:13.198Z,22.53
2018-11-21T04:02:42.983Z,21.00
2018-11-21T04:05:11.411Z,22.40
2018-11-21T04:07:39.679Z,22.30
2018-11-21T04:10:12.920Z,21.70
2018-11-21T04:12:41.199Z,21.63
2018-11-21T04:17:39.093Z,23.10
2018-11-21T04:20:07.696Z,22.33
2018-11-21T04:22:36.135Z,23.07
2018-11-21T04:25:05.262Z,22.10
2018-11-21T04:27:33.563Z,21.47
2018-11-21T04:30:01.861Z,22.93
2018-11-21T04:32:30.121Z,23.27
2018-11-21T04:34:58.714Z,22.17
2018-11-21T04:37:26.995Z,23.37
2018-11-21T04:39:55.242Z,23.27
2018-11-21T04:42:23.502Z,22.57
2018-11-21T04:44:51.798Z,22.10
2018-11-21T04:47:20.055Z,23.27
2018-11-21T04:49:48.483Z,22.50
2018-11-21T04:52:16.869Z,22.87
2018-11-21T04:54:45.156Z,22.50
2018-11-21T04:57:13.742Z,22.90
2018-11-21T04:59:42.016Z,22.47
2018-11-21T05:02:10.294Z,23.47
2018-11-21T05:04:41.016Z,19.97
2018-11-21T05:07:09.318Z,23.50
2018-11-21T05:09:37.576Z,22.43
2018-11-21T05:12:05.873Z,23.60
2018-11-21T05:14:34.547Z,23.90
2018-11-21T05:17:03.186Z,24.10
2018-11-21T05:19:37.337Z,23.87
2018-11-21T05:22:05.627Z,24.30
2018-11-21T05:24:34.184Z,24.20
2018-11-21T05:27:02.461Z,24.10
2018-11-21T05:29:30.775Z,24.90
2018-11-21T05:31:59.070Z,22.87
2018-11-21T05:34:27.350Z,25.57
2018-11-21T05:36:55.632Z,23.27
2018-11-21T05:39:23.934Z,24.07
2018-11-21T05:41:53.720Z,22.50
2018-11-21T05:44:22.117Z,24.87
2018-11-21T05:46:53.610Z,25.33
2018-11-21T05:49:18.662Z,24.50
2018-11-21T05:51:46.986Z,23.63
2018-11-21T05:54:15.248Z,23.30
2018-11-21T05:56:43.518Z,24.27
2018-11-21T05:59:11.772Z,23.30
2018-11-21T06:01:40.080Z,24.07
2018-11-21T06:04:08.357Z,23.47
2018-11-21T06:06:36.643Z,23.73
2018-11-21T06:09:08.730Z,24.63
2018-11-21T06:11:37.355Z,24.53
2018-11-21T06:14:05.986Z,24.43
2018-11-21T06:16:34.348Z,23.33
2018-11-21T06:19:02.658Z,23.63
2018-11-21T06:21:31.008Z,24.33
2018-11-21T06:23:59.342Z,23.70
2018-11-21T06:26:27.611Z,23.80
2018-11-21T06:28:55.856Z,22.33
2018-11-21T06:31:24.209Z,24.63
2018-11-21T06:33:52.504Z,23.60
2018-11-21T06:36:20.806Z,24.57
2018-11-21T06:38:49.084Z,25.67
2018-11-21T06:41:17.370Z,23.07
2018-11-21T06:43:45.701Z,24.87
2018-11-21T06:46:14.424Z,24.30
2018-11-21T06:48:42.761Z,25.90
2018-11-21T06:51:11.071Z,24.07
2018-11-21T06:53:39.382Z,24.50
2018-11-21T06:56:07.674Z,23.67
2018-11-21T06:58:35.952Z,24.43
2018-11-21T07:01:04.276Z,24.73
2018-11-21T07:03:34.485Z,25.13
2018-11-21T07:06:02.783Z,25.33
2018-11-21T07:08:31.072Z,25.50
2018-11-21T07:10:59.407Z,23.30
2018-11-21T07:13:27.715Z,24.40
2018-11-21T07:15:56.011Z,24.57
2018-11-21T07:18:24.272Z,25.63
2018-11-21T07:20:52.577Z,22.13
2018-11-21T07:23:20.869Z,23.77
2018-11-21T07:25:49.170Z,24.87
2018-11-21T07:28:17.431Z,25.57
2018-11-21T07:30:45.710Z,25.23
2018-11-21T07:33:14.042Z,25.47
2018-11-21T07:35:42.317Z,24.07
2018-11-21T07:38:10.603Z,24.23
2018-11-21T07:40:38.853Z,24.13
2018-11-21T07:43:07.160Z,24.43
2018-11-21T07:45:35.417Z,25.73
2018-11-21T07:48:03.700Z,25.50
2018-11-21T07:50:31.974Z,25.03
2018-11-21T07:53:00.253Z,23.73
2018-11-21T07:55:28.567Z,24.90
2018-11-21T07:57:59.069Z,24.67
2018-11-21T08:01:04.212Z,24.33
2018-11-21T08:03:46.597Z,24.60
2018-11-21T08:06:32.574Z,24.33
2018-11-21T08:09:12.855Z,24.03
2018-11-21T08:11:59.167Z,25.57
2018-11-21T08:14:48.704Z,23.27
2018-11-21T08:17:33.969Z,23.97
2018-11-21T08:20:36.498Z,24.97
2018-11-21T08:23:15.785Z,23.60
2018-11-21T08:26:09.062Z,25.07
2018-11-21T08:28:37.361Z,24.07
2018-11-21T08:31:05.708Z,24.17
2018-11-21T08:33:34.316Z,23.80
2018-11-21T08:36:02.280Z,23.60
2018-11-21T08:38:30.572Z,24.17
2018-11-21T08:40:58.873Z,23.23
2018-11-21T08:43:27.215Z,23.87
2018-11-21T08:45:55.533Z,23.40
2018-11-21T08:48:24.157Z,22.87
2018-11-21T08:50:55.386Z,22.77
2018-11-21T08:53:23.648Z,23.40
2018-11-21T08:55:51.955Z,23.97
2018-11-21T08:58:20.238Z,23.30
2018-11-21T09:00:49.362Z,21.63
2018-11-21T09:03:17.652Z,23.10
2018-11-21T09:05:45.941Z,22.10
2018-11-21T09:08:14.233Z,22.73
2018-11-21T09:10:42.487Z,23.73
2018-11-21T09:13:10.801Z,23.87
2018-11-21T09:15:39.087Z,22.93
2018-11-21T09:18:07.345Z,22.90
2018-11-21T09:20:35.595Z,23.50
2018-11-21T09:23:04.508Z,23.17
2018-11-21T09:25:32.835Z,24.87
2018-11-21T09:28:01.115Z,23.30
2018-11-21T09:30:29.449Z,23.00
2018-11-21T09:32:58.533Z,23.67
2018-11-21T09:35:26.803Z,23.27
2018-11-21T09:37:55.122Z,23.23
2018-11-21T09:40:24.042Z,23.13
2018-11-21T09:42:53.912Z,23.47
2018-11-21T09:45:23.161Z,22.73
2018-11-21T09:47:51.452Z,25.83
2018-11-21T09:50:21.647Z,23.73
2018-11-21T09:52:50.459Z,25.00
2018-11-21T09:55:18.271Z,23.97
2018-11-21T09:57:46.561Z,23.57
2018-11-21T10:00:52.425Z,23.83
2018-11-21T10:03:25.401Z,24.13
2018-11-21T10:05:56.127Z,22.60
2018-11-21T10:08:47.013Z,24.30
2018-11-21T10:11:15.740Z,24.37
2018-11-21T10:13:44.017Z,23.20
2018-11-21T10:16:12.371Z,23.57
2018-11-21T10:18:42.288Z,21.93
2018-11-21T10:21:15.090Z,23.50
2018-11-21T10:23:43.659Z,24.10
2018-11-21T10:26:12.017Z,23.67
2018-11-21T10:28:40.669Z,23.47
2018-11-21T10:31:09.035Z,23.73
2018-11-21T10:33:37.375Z,23.23
2018-11-21T10:36:05.706Z,22.70
2018-11-21T10:38:34.362Z,22.87
2018-11-21T10:41:02.650Z,23.03
2018-11-21T10:43:31.455Z,22.10
2018-11-21T10:46:00.160Z,22.87
2018-11-21T10:48:28.446Z,21.40
2018-11-21T10:50:56.726Z,21.97
2018-11-21T10:53:25.038Z,22.87
2018-11-21T10:55:53.324Z,22.47
2018-11-21T10:58:21.648Z,21.67
2018-11-21T11:01:07.835Z,21.87
2018-11-21T11:03:38.458Z,22.40
2018-11-21T11:06:24.875Z,21.87
2018-11-21T11:09:15.184Z,22.03
2018-11-21T11:12:04.545Z,22.30
2018-11-21T11:14:57.939Z,22.03
2018-11-21T11:18:00.249Z,21.87
2018-11-21T11:20:50.510Z,22.63
2018-11-21T11:23:37.244Z,22.83
2018-11-21T11:26:27.525Z,22.63
2018-11-21T11:29:13.840Z,22.33
2018-11-21T11:32:00.417Z,22.70
2018-11-21T11:34:48.129Z,22.33
2018-11-21T11:37:34.023Z,21.87
2018-11-21T11:40:27.260Z,21.97
2018-11-21T11:43:11.057Z,22.20
2018-11-21T11:46:04.076Z,21.97
2018-11-21T11:48:54.060Z,23.30
2018-11-21T11:51:38.580Z,23.13
2018-11-21T11:54:21.190Z,22.80
2018-11-21T11:57:26.753Z,22.50
2018-11-21T12:00:32.217Z,21.90
2018-11-21T12:03:19.736Z,23.73
2018-11-21T12:06:05.884Z,21.33
2018-11-21T12:08:50.164Z,22.90
2018-11-21T12:11:36.201Z,21.70
2018-11-21T12:14:17.567Z,22.20
2018-11-21T12:17:03.796Z,22.13
2018-11-21T12:19:38.247Z,21.27
2018-11-21T12:22:24.310Z,22.03
2018-11-21T12:25:29.952Z,22.90
2018-11-21T12:28:16.424Z,22.17
2018-11-21T12:31:00.535Z,22.23
2018-11-21T12:33:46.822Z,22.33
2018-11-21T12:36:32.640Z,22.37
2018-11-21T12:39:38.039Z,22.23
2018-11-21T12:42:23.926Z,21.33
2018-11-21T12:45:17.314Z,23.33
2018-11-21T12:48:03.316Z,21.50
2018-11-21T12:50:49.995Z,21.77
2018-11-21T12:53:25.652Z,21.63
2018-11-21T12:56:13.133Z,22.10
2018-11-21T12:59:13.135Z,22.43
2018-11-21T13:01:56.194Z,22.27
2018-11-21T13:04:46.751Z,21.53
2018-11-21T13:07:32.870Z,22.27
2018-11-21T13:10:18.641Z,21.87
2018-11-21T13:13:02.990Z,21.63
2018-11-21T13:16:02.808Z,22.13
2018-11-21T13:18:49.031Z,21.13
2018-11-21T13:22:03.565Z,21.37
2018-11-21T13:24:49.549Z,21.53
2018-11-21T13:27:28.921Z,21.50
2018-11-21T13:30:14.939Z,21.43
2018-11-21T13:33:01.913Z,22.63
2018-11-21T13:36:04.525Z,21.97
2018-11-21T13:38:52.131Z,21.87
2018-11-21T13:41:32.312Z,22.40
2018-11-21T13:44:25.585Z,22.60
2018-11-21T13:47:31.113Z,22.57
2018-11-21T13:50:25.043Z,21.77
2018-11-21T13:53:16.690Z,22.23
2018-11-21T13:55:45.213Z,22.87
2018-11-21T13:58:13.564Z,21.77
2018-11-21T14:00:42.079Z,22.67
2018-11-21T14:03:10.412Z,22.67
2018-11-21T14:05:38.714Z,22.37
2018-11-21T14:08:07.091Z,22.30
2018-11-21T14:10:35.374Z,22.07
2018-11-21T14:13:03.680Z,22.07
2018-11-21T14:15:32.842Z,20.83
2018-11-21T14:18:00.299Z,23.07
2018-11-21T14:20:34.749Z,22.37
2018-11-21T14:23:03.105Z,22.87
2018-11-21T14:25:31.409Z,21.70
2018-11-21T14:27:59.769Z,22.67
2018-11-21T14:30:28.097Z,20.73
2018-11-21T14:32:56.389Z,22.63
2018-11-21T14:35:24.716Z,22.80
2018-11-21T14:37:53.138Z,23.67
2018-11-21T14:40:21.477Z,23.40
2018-11-21T14:42:49.776Z,21.93
2018-11-21T14:45:18.981Z,23.63
2018-11-21T14:47:49.410Z,22.83
2018-11-21T14:50:20.368Z,22.33
2018-11-21T14:52:48.650Z,22.53
2018-11-21T14:55:17.312Z,22.20
2018-11-21T14:57:45.648Z,23.87
2018-11-21T15:00:16.544Z,22.43
2018-11-21T15:02:44.908Z,22.23
2018-11-21T15:05:13.638Z,22.60
2018-11-21T15:07:42.710Z,23.03
2018-11-21T15:10:11.771Z,22.37
2018-11-21T15:12:40.162Z,24.00
2018-11-21T15:15:10.866Z,21.97
2018-11-21T15:17:39.208Z,23.33
2018-11-21T15:20:13.184Z,23.47
2018-11-21T15:22:41.526Z,23.80
2018-11-21T15:25:12.541Z,23.27
2018-11-21T15:27:41.045Z,24.47
2018-11-21T15:30:15.284Z,23.47
2018-11-21T15:32:43.761Z,23.30
2018-11-21T15:35:12.070Z,23.40
2018-11-21T15:37:41.264Z,23.77
2018-11-21T15:40:17.162Z,24.63
2018-11-21T15:42:45.530Z,24.30
2018-11-21T15:45:15.552Z,24.33
2018-11-21T15:47:44.774Z,24.63
2018-11-21T15:50:15.743Z,25.07
2018-11-21T15:52:44.201Z,23.37
2018-11-21T15:55:14.088Z,24.97
2018-11-21T15:57:42.447Z,24.47
2018-11-21T16:00:13.418Z,23.70
2018-11-21T16:02:42.419Z,24.33
2018-11-21T16:05:10.766Z,24.37
2018-11-21T16:07:41.489Z,24.50
2018-11-21T16:10:18.522Z,24.20
2018-11-21T16:12:40.400Z,25.10
2018-11-21T16:15:13.745Z,24.70
2018-11-21T16:17:42.061Z,25.53
2018-11-21T16:20:11.811Z,25.17
2018-11-21T16:22:40.543Z,24.57
2018-11-21T16:25:10.809Z,25.20
2018-11-21T16:27:39.721Z,25.37
2018-11-21T16:30:10.439Z,24.93
2018-11-21T16:32:38.780Z,25.37
2018-11-21T16:35:08.435Z,25.70
2018-11-21T16:37:36.025Z,25.43
2018-11-21T16:40:06.462Z,25.43
2018-11-21T16:42:34.742Z,25.47
2018-11-21T16:45:03.073Z,25.87
2018-11-21T16:47:31.362Z,24.90
2018-11-21T16:49:59.674Z,26.90
2018-11-21T16:52:27.955Z,25.27
2018-11-21T16:54:56.288Z,26.17
2018-11-21T16:57:24.552Z,25.20
2018-11-21T16:59:52.889Z,25.50
2018-11-21T17:02:21.237Z,25.67
2018-11-21T17:04:52.668Z,27.50
2018-11-21T17:07:20.993Z,26.73
2018-11-21T17:09:49.329Z,27.07
2018-11-21T17:12:17.641Z,27.63
2018-11-21T17:14:45.958Z,26.77
2018-11-21T17:17:14.331Z,26.63
2018-11-21T17:19:42.678Z,26.77
2018-11-21T17:22:11.014Z,27.97
2018-11-21T17:24:40.584Z,28.00
2018-11-21T17:27:08.898Z,25.83
2018-11-21T17:29:37.195Z,26.77
2018-11-21T17:32:07.765Z,28.50
2018-11-21T17:34:36.597Z,27.87
2018-11-21T17:37:04.922Z,29.13
2018-11-21T17:39:33.261Z,28.73
2018-11-21T17:42:01.568Z,27.30
2018-11-21T17:44:29.921Z,27.97
2018-11-21T17:46:58.231Z,28.20
2018-11-21T17:49:26.567Z,25.07
2018-11-21T17:52:22.303Z,28.03
2018-11-21T17:54:50.604Z,28.17
2018-11-21T17:57:18.914Z,28.47
2018-11-21T17:59:47.221Z,26.90
2018-11-21T18:02:15.550Z,28.53
2018-11-21T18:04:43.874Z,27.67
2018-11-21T18:07:12.193Z,29.87
2018-11-21T18:09:40.498Z,28.50
2018-11-21T18:12:08.871Z,28.33
2018-11-21T18:14:37.183Z,28.23
2018-11-21T18:17:05.832Z,29.53
2018-11-21T18:19:36.575Z,28.13
2018-11-21T18:22:05.015Z,29.03
2018-11-21T18:24:33.285Z,28.87
2018-11-21T18:27:02.012Z,29.33
2018-11-21T18:29:30.334Z,28.30
2018-11-21T18:31:58.707Z,28.63
2018-11-21T18:34:27.122Z,30.10
2018-11-21T18:36:55.485Z,28.93
2018-11-21T18:39:24.035Z,27.77
2018-11-21T18:41:52.759Z,28.80
2018-11-21T18:44:21.049Z,28.63
2018-11-21T18:46:49.486Z,29.97
2018-11-21T18:49:17.818Z,28.10
2018-11-21T18:51:49.491Z,29.93
2018-11-21T18:54:17.866Z,29.00
2018-11-21T18:56:53.915Z,29.17
2018-11-21T18:59:53.126Z,28.80
2018-11-21T19:02:21.430Z,28.27
2018-11-21T19:04:49.787Z,29.37
2018-11-21T19:07:18.210Z,28.43
2018-11-21T19:09:46.497Z,29.50
2018-11-21T19:12:15.404Z,28.30
2018-11-21T19:14:43.702Z,28.33
2018-11-21T19:17:12.038Z,27.80
2018-11-21T19:19:40.668Z,28.83
2018-11-21T19:22:37.651Z,29.97
2018-11-21T19:25:06.706Z,27.97
2018-11-21T19:27:35.206Z,27.37
2018-11-21T19:30:03.546Z,27.73
2018-11-21T19:32:32.051Z,27.73
2018-11-21T19:35:00.805Z,29.17
2018-11-21T19:37:29.104Z,29.17
2018-11-21T19:39:57.413Z,28.83
2018-11-21T19:42:25.741Z,29.63
2018-11-21T19:44:54.101Z,27.80
2018-11-21T19:47:22.412Z,28.10
2018-11-21T19:49:51.050Z,29.40
2018-11-21T19:56:01.488Z,27.77
2018-11-21T19:58:28.817Z,28.03
2018-11-21T20:00:57.425Z,29.07
2018-11-21T20:03:25.803Z,29.27
2018-11-21T20:05:54.406Z,29.17
2018-11-21T20:08:22.763Z,28.87
2018-11-21T20:10:51.176Z,29.80
2018-11-21T20:13:19.745Z,29.43
2018-11-21T20:15:50.594Z,30.37
2018-11-21T20:18:19.379Z,30.43
2018-11-21T20:20:47.742Z,28.33
2018-11-21T20:23:16.119Z,29.30
2018-11-21T20:25:44.479Z,29.43
2018-11-21T20:28:12.914Z,28.70
2018-11-21T20:30:41.849Z,29.93
2018-11-21T20:33:10.249Z,30.17
2018-11-21T20:35:38.739Z,28.87
2018-11-21T20:38:08.231Z,29.50
2018-11-21T20:40:37.634Z,29.50
2018-11-21T20:43:06.058Z,29.23
2018-11-21T20:45:34.746Z,29.33
2018-11-21T20:48:03.424Z,28.93
2018-11-21T20:50:31.777Z,27.27
2018-11-21T20:53:00.176Z,27.53
2018-11-21T20:55:30.130Z,28.27
2018-11-21T20:57:58.541Z,26.33
2018-11-21T21:00:28.279Z,28.10
2018-11-21T21:02:56.648Z,27.83
2018-11-21T21:05:25.754Z,26.20
2018-11-21T21:07:54.406Z,27.07
2018-11-21T21:10:24.480Z,27.53
2018-11-21T21:12:52.772Z,26.37
2018-11-21T21:15:21.387Z,27.53
2018-11-21T21:17:50.416Z,27.17
2018-11-21T21:20:20.049Z,26.77
2018-11-21T21:22:49.712Z,26.17
2018-11-21T21:25:19.787Z,25.07
2018-11-21T21:27:48.143Z,27.17
2018-11-21T21:30:18.102Z,26.90
2018-11-21T21:32:47.062Z,26.57
2018-11-21T21:35:16.382Z,27.57
2018-11-21T21:37:44.796Z,26.93
2018-11-21T21:40:20.227Z,28.20
2018-11-21T21:42:43.260Z,28.73
2018-11-21T21:45:13.510Z,27.97
2018-11-21T21:47:41.863Z,29.43
2018-11-21T21:50:11.261Z,27.63
2018-11-21T21:52:39.568Z,27.47
2018-11-21T21:55:09.027Z,28.13
2018-11-21T21:57:37.502Z,29.23
2018-11-21T22:00:17.564Z,27.77
2018-11-21T22:02:46.416Z,27.53
2018-11-21T22:05:14.699Z,29.57
2018-11-21T22:07:43.381Z,28.83
2018-11-21T22:10:13.102Z,28.53
2018-11-21T22:12:42.092Z,28.57
2018-11-21T22:15:33.552Z,29.53
2018-11-21T22:18:03.649Z,29.83
2018-11-21T22:20:31.959Z,28.67
2018-11-21T22:23:00.317Z,30.23
2018-11-21T22:25:28.628Z,28.97
2018-11-21T22:27:56.957Z,29.27
2018-11-21T22:30:25.626Z,29.57
2018-11-21T22:32:54.769Z,28.23
2018-11-21T22:35:25.172Z,30.07
2018-11-21T22:37:53.220Z,30.37
2018-11-21T22:40:21.938Z,29.47
2018-11-21T22:42:50.250Z,28.37
2018-11-21T22:45:19.522Z,29.60
2018-11-21T22:47:47.805Z,29.77
2018-11-21T22:50:23.260Z,28.60
2018-11-21T22:52:51.558Z,29.17
2018-11-21T22:55:20.333Z,28.50
2018-11-21T22:57:49.311Z,29.20
2018-11-21T23:00:20.391Z,29.47
2018-11-21T23:02:48.702Z,28.27
2018-11-21T23:05:17.036Z,28.63
2018-11-21T23:07:45.710Z,27.80
2018-11-21T23:10:15.337Z,28.37
2018-11-21T23:12:43.595Z,27.23
2018-11-21T23:15:12.644Z,29.97
2018-11-21T23:17:40.936Z,28.07
2018-11-21T23:20:11.519Z,27.83
2018-11-21T23:22:39.854Z,30.33
2018-11-21T23:25:09.460Z,29.00
2018-11-21T23:27:38.102Z,28.67
2018-11-21T23:30:14.896Z,30.30
2018-11-21T23:32:43.223Z,31.07
2018-11-21T23:35:12.892Z,31.77
2018-11-21T23:37:41.208Z,31.60
2018-11-21T23:40:11.030Z,32.80
2018-11-21T23:42:40.416Z,33.50
2018-11-21T23:45:10.194Z,32.97
2018-11-21T23:47:38.498Z,33.17
2018-11-21T23:50:08.240Z,34.13
2018-11-21T23:52:36.587Z,35.47
2018-11-21T23:55:06.101Z,34.50
2018-11-21T23:57:34.395Z,35.53
